sensor_id;sensor_type;location;lat;lon;timestamp;P1;durP1;ratioP1;P2;durP2;ratioP2
16063;SDS011;8136;53.172;8.256;2023-10-13T00:01:30;28.93;;;17.67;;
16063;SDS011;8136;53.172;8.256;2023-10-13T00:04:38;26.60;;;18.23;;
16063;SDS011;8136;53.172;8.256;2023-10-13T00:14:31;26.80;;;17.67;;
16063;SDS011;8136;53.172;8.256;2023-10-13T00:21:06;31.40;;;19.93;;
16063;SDS011;8136;53.172;8.256;2023-10-13T00:34:14;33.57;;;19.93;;
16063;SDS011;8136;53.172;8.256;2023-10-13T00:36:37;32.93;;;20.17;;
16063;SDS011;8136;53.172;8.256;2023-10-13T00:39:31;34.23;;;20.93;;
16063;SDS011;8136;53.172;8.256;2023-10-13T01:01:34;35.70;;;21.83;;
16063;SDS011;8136;53.172;8.256;2023-10-13T01:04:45;35.23;;;21.40;;
16063;SDS011;8136;53.172;8.256;2023-10-13T01:10:18;32.53;;;21.20;;
16063;SDS011;8136;53.172;8.256;2023-10-13T01:13:36;37.40;;;22.03;;
16063;SDS011;8136;53.172;8.256;2023-10-13T01:16:49;34.23;;;22.63;;
16063;SDS011;8136;53.172;8.256;2023-10-13T01:19:25;36.33;;;23.23;;
16063;SDS011;8136;53.172;8.256;2023-10-13T01:25:40;36.77;;;24.07;;
16063;SDS011;8136;53.172;8.256;2023-10-13T01:28:31;37.00;;;24.43;;
16063;SDS011;8136;53.172;8.256;2023-10-13T01:31:26;34.43;;;23.30;;
16063;SDS011;8136;53.172;8.256;2023-10-13T01:36:59;36.80;;;23.80;;
16063;SDS011;8136;53.172;8.256;2023-10-13T01:42:17;31.73;;;21.83;;
16063;SDS011;8136;53.172;8.256;2023-10-13T01:45:04;33.97;;;23.00;;
16063;SDS011;8136;53.172;8.256;2023-10-13T02:56:59;35.30;;;24.23;;
16063;SDS011;8136;53.172;8.256;2023-10-13T03:45:53;34.63;;;21.90;;
16063;SDS011;8136;53.172;8.256;2023-10-13T03:56:19;32.50;;;19.33;;
16063;SDS011;8136;53.172;8.256;2023-10-13T03:59:22;31.87;;;19.57;;
16063;SDS011;8136;53.172;8.256;2023-10-13T05:48:07;23.20;;;17.47;;
16063;SDS011;8136;53.172;8.256;2023-10-13T05:50:47;25.10;;;16.63;;
16063;SDS011;8136;53.172;8.256;2023-10-13T05:53:48;23.63;;;16.13;;
16063;SDS011;8136;53.172;8.256;2023-10-13T05:56:37;21.73;;;16.13;;
16063;SDS011;8136;53.172;8.256;2023-10-13T05:59:28;25.20;;;16.80;;
16063;SDS011;8136;53.172;8.256;2023-10-13T06:02:34;22.93;;;16.43;;
16063;SDS011;8136;53.172;8.256;2023-10-13T06:12:35;24.20;;;15.47;;
16063;SDS011;8136;53.172;8.256;2023-10-13T06:15:35;24.13;;;16.57;;
16063;SDS011;8136;53.172;8.256;2023-10-13T06:25:49;19.43;;;14.00;;
16063;SDS011;8136;53.172;8.256;2023-10-13T06:39:03;16.77;;;11.83;;
16063;SDS011;8136;53.172;8.256;2023-10-13T06:46:35;17.23;;;10.93;;
16063;SDS011;8136;53.172;8.256;2023-10-13T07:29:12;12.50;;;9.47;;
16063;SDS011;8136;53.172;8.256;2023-10-13T07:31:40;11.80;;;9.50;;
16063;SDS011;8136;53.172;8.256;2023-10-13T07:34:09;12.03;;;9.20;;
16063;SDS011;8136;53.172;8.256;2023-10-13T07:36:51;12.47;;;9.77;;
16063;SDS011;8136;53.172;8.256;2023-10-13T07:39:20;12.57;;;9.77;;
16063;SDS011;8136;53.172;8.256;2023-10-13T07:41:48;15.60;;;10.17;;
16063;SDS011;8136;53.172;8.256;2023-10-13T07:44:21;12.10;;;9.90;;
16063;SDS011;8136;53.172;8.256;2023-10-13T07:46:50;13.63;;;10.20;;
16063;SDS011;8136;53.172;8.256;2023-10-13T07:49:26;11.80;;;10.60;;
16063;SDS011;8136;53.172;8.256;2023-10-13T07:52:02;13.80;;;11.20;;
16063;SDS011;8136;53.172;8.256;2023-10-13T07:54:49;14.37;;;11.40;;
16063;SDS011;8136;53.172;8.256;2023-10-13T07:57:25;13.27;;;10.20;;
16063;SDS011;8136;53.172;8.256;2023-10-13T07:59:55;11.93;;;10.53;;
16063;SDS011;8136;53.172;8.256;2023-10-13T08:02:36;12.63;;;9.63;;
16063;SDS011;8136;53.172;8.256;2023-10-13T08:05:15;14.50;;;9.63;;
16063;SDS011;8136;53.172;8.256;2023-10-13T08:07:52;13.43;;;9.77;;
16063;SDS011;8136;53.172;8.256;2023-10-13T08:10:21;12.07;;;9.00;;
16063;SDS011;8136;53.172;8.256;2023-10-13T08:12:54;10.17;;;7.53;;
16063;SDS011;8136;53.172;8.256;2023-10-13T08:15:25;8.60;;;6.77;;
16063;SDS011;8136;53.172;8.256;2023-10-13T08:17:58;8.77;;;6.87;;
16063;SDS011;8136;53.172;8.256;2023-10-13T08:23:27;7.53;;;5.53;;
16063;SDS011;8136;53.172;8.256;2023-10-13T08:26:24;10.73;;;5.20;;
16063;SDS011;8136;53.172;8.256;2023-10-13T08:29:12;8.47;;;4.43;;
16063;SDS011;8136;53.172;8.256;2023-10-13T08:32:12;6.60;;;4.37;;
16063;SDS011;8136;53.172;8.256;2023-10-13T08:38:23;8.80;;;4.30;;
16063;SDS011;8136;53.172;8.256;2023-10-13T08:40:54;9.60;;;3.83;;
16063;SDS011;8136;53.172;8.256;2023-10-13T08:43:38;6.37;;;4.43;;
16063;SDS011;8136;53.172;8.256;2023-10-13T08:46:10;6.67;;;4.13;;
16063;SDS011;8136;53.172;8.256;2023-10-13T08:52:04;7.33;;;4.00;;
16063;SDS011;8136;53.172;8.256;2023-10-13T08:54:51;9.27;;;4.13;;
16063;SDS011;8136;53.172;8.256;2023-10-13T08:57:38;9.00;;;4.80;;
16063;SDS011;8136;53.172;8.256;2023-10-13T09:00:06;7.67;;;5.00;;
16063;SDS011;8136;53.172;8.256;2023-10-13T09:03:14;9.97;;;4.50;;
16063;SDS011;8136;53.172;8.256;2023-10-13T09:05:53;8.90;;;4.63;;
16063;SDS011;8136;53.172;8.256;2023-10-13T09:08:33;8.20;;;4.63;;
16063;SDS011;8136;53.172;8.256;2023-10-13T09:11:10;7.00;;;4.63;;
16063;SDS011;8136;53.172;8.256;2023-10-13T09:13:37;9.43;;;4.73;;
16063;SDS011;8136;53.172;8.256;2023-10-13T09:16:11;11.90;;;5.10;;
16063;SDS011;8136;53.172;8.256;2023-10-13T09:19:06;10.60;;;5.60;;
16063;SDS011;8136;53.172;8.256;2023-10-13T09:21:37;6.20;;;4.93;;
16063;SDS011;8136;53.172;8.256;2023-10-13T09:24:14;9.00;;;5.40;;
16063;SDS011;8136;53.172;8.256;2023-10-13T09:26:47;8.50;;;5.67;;
16063;SDS011;8136;53.172;8.256;2023-10-13T09:29:15;9.63;;;5.33;;
16063;SDS011;8136;53.172;8.256;2023-10-13T09:31:46;9.20;;;5.03;;
16063;SDS011;8136;53.172;8.256;2023-10-13T09:34:20;12.43;;;6.10;;
16063;SDS011;8136;53.172;8.256;2023-10-13T09:36:48;7.70;;;5.50;;
16063;SDS011;8136;53.172;8.256;2023-10-13T09:39:22;10.77;;;5.77;;
16063;SDS011;8136;53.172;8.256;2023-10-13T09:42:06;7.47;;;5.60;;
16063;SDS011;8136;53.172;8.256;2023-10-13T09:44:35;8.73;;;5.27;;
16063;SDS011;8136;53.172;8.256;2023-10-13T09:47:07;9.73;;;5.70;;
16063;SDS011;8136;53.172;8.256;2023-10-13T09:49:43;6.60;;;5.30;;
16063;SDS011;8136;53.172;8.256;2023-10-13T09:52:14;8.10;;;5.90;;
16063;SDS011;8136;53.172;8.256;2023-10-13T09:54:50;6.30;;;4.93;;
16063;SDS011;8136;53.172;8.256;2023-10-13T09:57:26;8.77;;;5.93;;
16063;SDS011;8136;53.172;8.256;2023-10-13T11:11:56;7.23;;;5.20;;
16063;SDS011;8136;53.172;8.256;2023-10-13T11:14:39;13.00;;;5.87;;
16063;SDS011;8136;53.172;8.256;2023-10-13T11:17:07;11.97;;;5.50;;
16063;SDS011;8136;53.172;8.256;2023-10-13T11:19:45;7.97;;;5.27;;
16063;SDS011;8136;53.172;8.256;2023-10-13T11:22:13;9.37;;;5.90;;
16063;SDS011;8136;53.172;8.256;2023-10-13T11:24:59;9.97;;;5.77;;
16063;SDS011;8136;53.172;8.256;2023-10-13T11:27:34;9.13;;;4.90;;
16063;SDS011;8136;53.172;8.256;2023-10-13T11:30:21;11.50;;;5.53;;
16063;SDS011;8136;53.172;8.256;2023-10-13T11:32:58;8.73;;;4.60;;
16063;SDS011;8136;53.172;8.256;2023-10-13T11:35:26;9.17;;;4.93;;
16063;SDS011;8136;53.172;8.256;2023-10-13T11:38:14;10.03;;;4.80;;
16063;SDS011;8136;53.172;8.256;2023-10-13T11:40:51;12.10;;;4.93;;
16063;SDS011;8136;53.172;8.256;2023-10-13T11:43:37;11.23;;;4.73;;
16063;SDS011;8136;53.172;8.256;2023-10-13T11:46:37;14.23;;;5.60;;
16063;SDS011;8136;53.172;8.256;2023-10-13T11:49:22;9.43;;;4.97;;
16063;SDS011;8136;53.172;8.256;2023-10-13T11:52:02;5.80;;;4.40;;
16063;SDS011;8136;53.172;8.256;2023-10-13T11:54:42;9.40;;;4.53;;
16063;SDS011;8136;53.172;8.256;2023-10-13T11:57:10;10.60;;;5.00;;
16063;SDS011;8136;53.172;8.256;2023-10-13T11:59:37;11.67;;;4.60;;
16063;SDS011;8136;53.172;8.256;2023-10-13T12:02:11;11.97;;;4.57;;
16063;SDS011;8136;53.172;8.256;2023-10-13T12:04:55;11.70;;;4.53;;
16063;SDS011;8136;53.172;8.256;2023-10-13T12:07:24;12.93;;;4.50;;
16063;SDS011;8136;53.172;8.256;2023-10-13T12:10:05;10.20;;;4.87;;
16063;SDS011;8136;53.172;8.256;2023-10-13T12:12:43;9.33;;;4.60;;
16063;SDS011;8136;53.172;8.256;2023-10-13T12:15:11;9.57;;;4.40;;
16063;SDS011;8136;53.172;8.256;2023-10-13T12:17:51;12.47;;;4.43;;
16063;SDS011;8136;53.172;8.256;2023-10-13T12:20:19;9.90;;;4.37;;
16063;SDS011;8136;53.172;8.256;2023-10-13T12:22:58;8.77;;;4.53;;
16063;SDS011;8136;53.172;8.256;2023-10-13T12:25:39;7.37;;;4.03;;
16063;SDS011;8136;53.172;8.256;2023-10-13T12:34:33;10.47;;;4.43;;
16063;SDS011;8136;53.172;8.256;2023-10-13T12:37:22;6.00;;;3.53;;
16063;SDS011;8136;53.172;8.256;2023-10-13T12:40:04;8.97;;;4.30;;
16063;SDS011;8136;53.172;8.256;2023-10-13T12:42:49;12.37;;;4.13;;
16063;SDS011;8136;53.172;8.256;2023-10-13T12:45:38;8.03;;;3.97;;
16063;SDS011;8136;53.172;8.256;2023-10-13T12:48:28;8.73;;;3.90;;
16063;SDS011;8136;53.172;8.256;2023-10-13T12:51:12;8.73;;;4.20;;
16063;SDS011;8136;53.172;8.256;2023-10-13T12:53:46;7.50;;;3.90;;
16063;SDS011;8136;53.172;8.256;2023-10-13T12:56:15;8.90;;;4.40;;
16063;SDS011;8136;53.172;8.256;2023-10-13T12:58:43;11.27;;;4.70;;
16063;SDS011;8136;53.172;8.256;2023-10-13T13:01:17;13.27;;;4.40;;
16063;SDS011;8136;53.172;8.256;2023-10-13T13:03:47;6.03;;;3.83;;
16063;SDS011;8136;53.172;8.256;2023-10-13T13:06:15;12.77;;;4.70;;
16063;SDS011;8136;53.172;8.256;2023-10-13T13:29:10;11.80;;;4.33;;
16063;SDS011;8136;53.172;8.256;2023-10-13T13:31:37;10.37;;;4.13;;
16063;SDS011;8136;53.172;8.256;2023-10-13T13:34:08;10.53;;;4.73;;
16063;SDS011;8136;53.172;8.256;2023-10-13T13:36:38;8.03;;;4.20;;
16063;SDS011;8136;53.172;8.256;2023-10-13T15:29:17;12.70;;;4.47;;
16063;SDS011;8136;53.172;8.256;2023-10-13T15:31:50;9.57;;;4.93;;
16063;SDS011;8136;53.172;8.256;2023-10-13T15:34:32;8.13;;;4.80;;
16063;SDS011;8136;53.172;8.256;2023-10-13T15:37:23;9.23;;;5.00;;
16063;SDS011;8136;53.172;8.256;2023-10-13T15:43:50;8.63;;;4.57;;
16063;SDS011;8136;53.172;8.256;2023-10-13T16:54:58;7.17;;;4.03;;
16063;SDS011;8136;53.172;8.256;2023-10-13T16:57:25;6.93;;;3.90;;
16063;SDS011;8136;53.172;8.256;2023-10-13T16:59:52;7.83;;;4.40;;
16063;SDS011;8136;53.172;8.256;2023-10-13T17:02:20;8.27;;;4.37;;
16063;SDS011;8136;53.172;8.256;2023-10-13T17:04:47;6.30;;;3.80;;
16063;SDS011;8136;53.172;8.256;2023-10-13T17:07:14;4.43;;;3.40;;
16063;SDS011;8136;53.172;8.256;2023-10-13T17:09:40;6.37;;;3.60;;
16063;SDS011;8136;53.172;8.256;2023-10-13T17:12:11;6.57;;;3.60;;
16063;SDS011;8136;53.172;8.256;2023-10-13T17:14:38;7.87;;;3.40;;
16063;SDS011;8136;53.172;8.256;2023-10-13T17:17:06;6.20;;;3.53;;
16063;SDS011;8136;53.172;8.256;2023-10-13T17:19:33;7.70;;;4.10;;
16063;SDS011;8136;53.172;8.256;2023-10-13T17:22:00;7.60;;;3.87;;
16063;SDS011;8136;53.172;8.256;2023-10-13T17:24:29;6.47;;;4.10;;
16063;SDS011;8136;53.172;8.256;2023-10-13T17:26:56;6.03;;;3.83;;
16063;SDS011;8136;53.172;8.256;2023-10-13T17:29:27;5.70;;;3.80;;
16063;SDS011;8136;53.172;8.256;2023-10-13T17:31:55;7.10;;;4.10;;
16063;SDS011;8136;53.172;8.256;2023-10-13T17:34:23;8.23;;;3.93;;
16063;SDS011;8136;53.172;8.256;2023-10-13T17:36:50;9.50;;;4.10;;
16063;SDS011;8136;53.172;8.256;2023-10-13T17:39:19;4.90;;;4.20;;
16063;SDS011;8136;53.172;8.256;2023-10-13T17:41:46;6.53;;;3.93;;
16063;SDS011;8136;53.172;8.256;2023-10-13T17:44:13;4.93;;;3.43;;
16063;SDS011;8136;53.172;8.256;2023-10-13T17:46:43;8.40;;;3.53;;
16063;SDS011;8136;53.172;8.256;2023-10-13T17:49:10;6.10;;;3.87;;
16063;SDS011;8136;53.172;8.256;2023-10-13T17:51:37;6.83;;;3.40;;
16063;SDS011;8136;53.172;8.256;2023-10-13T17:54:04;7.40;;;3.43;;
16063;SDS011;8136;53.172;8.256;2023-10-13T17:56:31;6.30;;;3.57;;
16063;SDS011;8136;53.172;8.256;2023-10-13T17:58:58;7.07;;;3.33;;
16063;SDS011;8136;53.172;8.256;2023-10-13T18:01:24;4.97;;;2.80;;
16063;SDS011;8136;53.172;8.256;2023-10-13T18:03:58;5.87;;;2.73;;
16063;SDS011;8136;53.172;8.256;2023-10-13T18:06:29;7.53;;;2.60;;
16063;SDS011;8136;53.172;8.256;2023-10-13T18:08:57;5.40;;;2.90;;
16063;SDS011;8136;53.172;8.256;2023-10-13T18:11:24;6.87;;;2.97;;
16063;SDS011;8136;53.172;8.256;2023-10-13T18:13:53;6.47;;;2.70;;
16063;SDS011;8136;53.172;8.256;2023-10-13T18:16:21;5.07;;;2.60;;
16063;SDS011;8136;53.172;8.256;2023-10-13T18:18:49;5.40;;;2.93;;
16063;SDS011;8136;53.172;8.256;2023-10-13T18:21:20;6.57;;;3.17;;
16063;SDS011;8136;53.172;8.256;2023-10-13T18:23:47;5.27;;;2.83;;
16063;SDS011;8136;53.172;8.256;2023-10-13T18:26:14;7.97;;;3.03;;
16063;SDS011;8136;53.172;8.256;2023-10-13T18:28:44;6.77;;;3.13;;
16063;SDS011;8136;53.172;8.256;2023-10-13T18:31:11;6.73;;;3.40;;
16063;SDS011;8136;53.172;8.256;2023-10-13T18:33:39;6.50;;;3.70;;
16063;SDS011;8136;53.172;8.256;2023-10-13T18:36:11;9.03;;;4.23;;
16063;SDS011;8136;53.172;8.256;2023-10-13T18:38:40;7.97;;;4.20;;
16063;SDS011;8136;53.172;8.256;2023-10-13T18:41:07;6.23;;;4.03;;
16063;SDS011;8136;53.172;8.256;2023-10-13T18:43:36;8.53;;;4.17;;
16063;SDS011;8136;53.172;8.256;2023-10-13T18:46:06;12.80;;;4.67;;
16063;SDS011;8136;53.172;8.256;2023-10-13T18:48:34;8.13;;;4.73;;
16063;SDS011;8136;53.172;8.256;2023-10-13T18:51:05;9.73;;;4.80;;
16063;SDS011;8136;53.172;8.256;2023-10-13T18:53:32;7.77;;;4.33;;
16063;SDS011;8136;53.172;8.256;2023-10-13T18:56:07;10.07;;;5.20;;
16063;SDS011;8136;53.172;8.256;2023-10-13T18:58:36;7.80;;;4.60;;
16063;SDS011;8136;53.172;8.256;2023-10-13T19:01:08;8.03;;;4.70;;
16063;SDS011;8136;53.172;8.256;2023-10-13T19:03:37;11.03;;;4.57;;
16063;SDS011;8136;53.172;8.256;2023-10-13T19:06:04;18.60;;;5.00;;
16063;SDS011;8136;53.172;8.256;2023-10-13T19:08:31;10.47;;;4.80;;
16063;SDS011;8136;53.172;8.256;2023-10-13T19:11:01;9.57;;;4.63;;
16063;SDS011;8136;53.172;8.256;2023-10-13T19:13:31;8.67;;;4.63;;
16063;SDS011;8136;53.172;8.256;2023-10-13T19:15:57;9.60;;;4.73;;
16063;SDS011;8136;53.172;8.256;2023-10-13T19:18:26;7.73;;;4.50;;
16063;SDS011;8136;53.172;8.256;2023-10-13T19:20:54;11.87;;;4.57;;
16063;SDS011;8136;53.172;8.256;2023-10-13T19:23:23;12.93;;;4.40;;
16063;SDS011;8136;53.172;8.256;2023-10-13T19:25:58;7.57;;;4.30;;
16063;SDS011;8136;53.172;8.256;2023-10-13T19:28:24;7.77;;;4.43;;
16063;SDS011;8136;53.172;8.256;2023-10-13T19:30:56;10.60;;;4.23;;
16063;SDS011;8136;53.172;8.256;2023-10-13T19:33:27;14.90;;;4.50;;
16063;SDS011;8136;53.172;8.256;2023-10-13T19:35:56;7.67;;;4.63;;
16063;SDS011;8136;53.172;8.256;2023-10-13T19:38:23;9.00;;;4.97;;
16063;SDS011;8136;53.172;8.256;2023-10-13T19:40:53;10.30;;;4.43;;
16063;SDS011;8136;53.172;8.256;2023-10-13T19:43:22;8.73;;;4.03;;
16063;SDS011;8136;53.172;8.256;2023-10-13T19:45:51;7.77;;;4.20;;
16063;SDS011;8136;53.172;8.256;2023-10-13T19:48:23;6.00;;;4.13;;
16063;SDS011;8136;53.172;8.256;2023-10-13T19:51:09;6.57;;;4.23;;
16063;SDS011;8136;53.172;8.256;2023-10-13T19:53:59;9.43;;;4.70;;
16063;SDS011;8136;53.172;8.256;2023-10-13T19:56:27;6.90;;;4.30;;
16063;SDS011;8136;53.172;8.256;2023-10-13T19:58:56;8.43;;;4.73;;
16063;SDS011;8136;53.172;8.256;2023-10-13T20:01:31;7.37;;;4.40;;
16063;SDS011;8136;53.172;8.256;2023-10-13T20:04:00;9.00;;;4.70;;
16063;SDS011;8136;53.172;8.256;2023-10-13T20:06:39;8.20;;;5.10;;
16063;SDS011;8136;53.172;8.256;2023-10-13T20:09:17;6.67;;;4.57;;
16063;SDS011;8136;53.172;8.256;2023-10-13T20:11:56;8.33;;;5.03;;
16063;SDS011;8136;53.172;8.256;2023-10-13T20:14:27;12.57;;;4.93;;
16063;SDS011;8136;53.172;8.256;2023-10-13T20:16:58;10.10;;;4.77;;
16063;SDS011;8136;53.172;8.256;2023-10-13T20:19:25;10.83;;;5.07;;
16063;SDS011;8136;53.172;8.256;2023-10-13T20:21:54;7.37;;;4.50;;
16063;SDS011;8136;53.172;8.256;2023-10-13T20:24:29;7.03;;;4.40;;
16063;SDS011;8136;53.172;8.256;2023-10-13T20:26:56;9.90;;;4.33;;
16063;SDS011;8136;53.172;8.256;2023-10-13T20:29:26;8.10;;;3.93;;
16063;SDS011;8136;53.172;8.256;2023-10-13T20:31:56;8.90;;;4.40;;
16063;SDS011;8136;53.172;8.256;2023-10-13T20:34:25;7.70;;;4.30;;
16063;SDS011;8136;53.172;8.256;2023-10-13T20:36:59;6.97;;;3.80;;
16063;SDS011;8136;53.172;8.256;2023-10-13T20:39:25;8.53;;;4.10;;
16063;SDS011;8136;53.172;8.256;2023-10-13T20:42:00;9.97;;;4.10;;
16063;SDS011;8136;53.172;8.256;2023-10-13T20:44:30;8.10;;;3.90;;
16063;SDS011;8136;53.172;8.256;2023-10-13T20:47:03;7.70;;;4.43;;
16063;SDS011;8136;53.172;8.256;2023-10-13T20:49:44;6.67;;;3.87;;
16063;SDS011;8136;53.172;8.256;2023-10-13T20:52:11;6.27;;;4.20;;
16063;SDS011;8136;53.172;8.256;2023-10-13T20:54:40;5.57;;;4.10;;
16063;SDS011;8136;53.172;8.256;2023-10-13T20:57:10;9.70;;;4.00;;
16063;SDS011;8136;53.172;8.256;2023-10-13T20:59:49;10.27;;;4.40;;
16063;SDS011;8136;53.172;8.256;2023-10-13T21:02:46;4.07;;;3.53;;
16063;SDS011;8136;53.172;8.256;2023-10-13T21:05:38;7.07;;;4.33;;
16063;SDS011;8136;53.172;8.256;2023-10-13T21:08:16;7.10;;;4.20;;
16063;SDS011;8136;53.172;8.256;2023-10-13T21:10:45;7.00;;;4.33;;
16063;SDS011;8136;53.172;8.256;2023-10-13T21:13:21;8.10;;;4.50;;
16063;SDS011;8136;53.172;8.256;2023-10-13T21:16:08;8.83;;;5.27;;
16063;SDS011;8136;53.172;8.256;2023-10-13T21:18:43;10.17;;;4.90;;
16063;SDS011;8136;53.172;8.256;2023-10-13T21:24:22;8.63;;;5.17;;
16063;SDS011;8136;53.172;8.256;2023-10-13T21:27:24;8.13;;;5.00;;
16063;SDS011;8136;53.172;8.256;2023-10-13T21:29:56;9.20;;;5.10;;
16063;SDS011;8136;53.172;8.256;2023-10-13T21:32:49;8.23;;;5.23;;
16063;SDS011;8136;53.172;8.256;2023-10-13T21:35:57;10.90;;;5.60;;
16063;SDS011;8136;53.172;8.256;2023-10-13T21:38:47;10.00;;;5.70;;
16063;SDS011;8136;53.172;8.256;2023-10-13T21:41:15;8.63;;;5.30;;
16063;SDS011;8136;53.172;8.256;2023-10-13T21:44:00;9.97;;;5.37;;
16063;SDS011;8136;53.172;8.256;2023-10-13T21:46:28;9.27;;;5.63;;
16063;SDS011;8136;53.172;8.256;2023-10-13T21:49:01;11.03;;;5.57;;
16063;SDS011;8136;53.172;8.256;2023-10-13T21:51:42;9.27;;;5.77;;
16063;SDS011;8136;53.172;8.256;2023-10-13T21:54:26;14.37;;;6.07;;
16063;SDS011;8136;53.172;8.256;2023-10-13T21:56:53;8.43;;;5.90;;
16063;SDS011;8136;53.172;8.256;2023-10-13T21:59:20;8.33;;;6.03;;
16063;SDS011;8136;53.172;8.256;2023-10-13T22:01:47;12.17;;;6.43;;
16063;SDS011;8136;53.172;8.256;2023-10-13T22:04:14;10.83;;;5.83;;
16063;SDS011;8136;53.172;8.256;2023-10-13T22:06:47;9.57;;;5.57;;
16063;SDS011;8136;53.172;8.256;2023-10-13T22:09:14;13.60;;;6.30;;
16063;SDS011;8136;53.172;8.256;2023-10-13T22:11:42;10.07;;;6.17;;
16063;SDS011;8136;53.172;8.256;2023-10-13T22:14:09;11.93;;;6.30;;
16063;SDS011;8136;53.172;8.256;2023-10-13T22:16:37;11.30;;;5.83;;
16063;SDS011;8136;53.172;8.256;2023-10-13T22:19:04;10.03;;;6.53;;
16063;SDS011;8136;53.172;8.256;2023-10-13T22:21:31;10.60;;;6.40;;
16063;SDS011;8136;53.172;8.256;2023-10-13T22:23:59;10.33;;;6.13;;
16063;SDS011;8136;53.172;8.256;2023-10-13T22:26:41;15.00;;;6.80;;
16063;SDS011;8136;53.172;8.256;2023-10-13T22:29:09;11.67;;;6.20;;
16063;SDS011;8136;53.172;8.256;2023-10-13T22:31:36;14.77;;;6.63;;
16063;SDS011;8136;53.172;8.256;2023-10-13T22:34:06;9.87;;;6.00;;
16063;SDS011;8136;53.172;8.256;2023-10-13T22:36:33;4.60;;;3.93;;
16063;SDS011;8136;53.172;8.256;2023-10-13T22:39:02;12.13;;;4.23;;
16063;SDS011;8136;53.172;8.256;2023-10-13T22:41:40;5.50;;;3.20;;
16063;SDS011;8136;53.172;8.256;2023-10-13T22:44:10;7.87;;;3.57;;
16063;SDS011;8136;53.172;8.256;2023-10-13T22:46:44;7.70;;;3.33;;
16063;SDS011;8136;53.172;8.256;2023-10-13T22:49:12;7.23;;;3.43;;
16063;SDS011;8136;53.172;8.256;2023-10-13T22:51:40;6.57;;;3.27;;
16063;SDS011;8136;53.172;8.256;2023-10-13T22:54:08;4.17;;;3.50;;
16063;SDS011;8136;53.172;8.256;2023-10-13T22:56:36;2.47;;;1.20;;
16063;SDS011;8136;53.172;8.256;2023-10-13T22:59:06;4.37;;;1.27;;
16063;SDS011;8136;53.172;8.256;2023-10-13T23:01:37;1.97;;;1.00;;
16063;SDS011;8136;53.172;8.256;2023-10-13T23:04:07;3.10;;;0.87;;
16063;SDS011;8136;53.172;8.256;2023-10-13T23:06:39;2.43;;;1.10;;
16063;SDS011;8136;53.172;8.256;2023-10-13T23:09:12;1.10;;;0.77;;
16063;SDS011;8136;53.172;8.256;2023-10-13T23:11:41;2.73;;;1.00;;
16063;SDS011;8136;53.172;8.256;2023-10-13T23:14:13;2.57;;;0.87;;
16063;SDS011;8136;53.172;8.256;2023-10-13T23:16:43;2.07;;;0.77;;
16063;SDS011;8136;53.172;8.256;2023-10-13T23:19:11;0.50;;;0.50;;
16063;SDS011;8136;53.172;8.256;2023-10-13T23:21:38;1.47;;;0.60;;
16063;SDS011;8136;53.172;8.256;2023-10-13T23:24:05;1.87;;;0.70;;
16063;SDS011;8136;53.172;8.256;2023-10-13T23:26:38;1.63;;;0.50;;
16063;SDS011;8136;53.172;8.256;2023-10-13T23:29:05;2.40;;;0.70;;
16063;SDS011;8136;53.172;8.256;2023-10-13T23:31:35;2.50;;;0.70;;
16063;SDS011;8136;53.172;8.256;2023-10-13T23:34:02;1.47;;;0.40;;
16063;SDS011;8136;53.172;8.256;2023-10-13T23:36:30;1.43;;;0.70;;
16063;SDS011;8136;53.172;8.256;2023-10-13T23:38:57;3.93;;;0.90;;
16063;SDS011;8136;53.172;8.256;2023-10-13T23:41:25;2.87;;;0.80;;
16063;SDS011;8136;53.172;8.256;2023-10-13T23:43:54;1.73;;;0.63;;
16063;SDS011;8136;53.172;8.256;2023-10-13T23:46:24;5.87;;;1.00;;
16063;SDS011;8136;53.172;8.256;2023-10-13T23:48:53;5.37;;;0.70;;
16063;SDS011;8136;53.172;8.256;2023-10-13T23:51:20;3.30;;;0.67;;
16063;SDS011;8136;53.172;8.256;2023-10-13T23:53:52;1.77;;;0.97;;
16063;SDS011;8136;53.172;8.256;2023-10-13T23:56:19;1.43;;;0.63;;
16063;SDS011;8136;53.172;8.256;2023-10-13T23:58:55;0.90;;;0.70;;
